sensor_id;sensor_type;location;lat;lon;timestamp;temperature;humidity
23143;DHT22;11740;51.168;4.112;2022-07-29T00:00:13;20.90;52.00
23143;DHT22;11740;51.168;4.112;2022-07-29T00:02:40;20.80;48.20
23143;DHT22;11740;51.168;4.112;2022-07-29T00:05:08;20.80;48.70
23143;DHT22;11740;51.168;4.112;2022-07-29T00:07:36;20.80;37.10
23143;DHT22;11740;51.168;4.112;2022-07-29T00:10:04;20.70;44.00
23143;DHT22;11740;51.168;4.112;2022-07-29T00:12:31;20.70;41.30
23143;DHT22;11740;51.168;4.112;2022-07-29T00:14:58;20.70;48.40
23143;DHT22;11740;51.168;4.112;2022-07-29T00:17:25;20.70;55.90
23143;DHT22;11740;51.168;4.112;2022-07-29T00:19:52;20.50;47.60
23143;DHT22;11740;51.168;4.112;2022-07-29T00:22:20;20.50;49.10
23143;DHT22;11740;51.168;4.112;2022-07-29T00:24:48;20.40;45.00
23143;DHT22;11740;51.168;4.112;2022-07-29T00:27:17;20.40;37.70
23143;DHT22;11740;51.168;4.112;2022-07-29T00:29:44;20.40;56.70
23143;DHT22;11740;51.168;4.112;2022-07-29T00:32:12;20.30;63.10
23143;DHT22;11740;51.168;4.112;2022-07-29T00:34:39;20.30;56.20
23143;DHT22;11740;51.168;4.112;2022-07-29T00:37:24;20.30;58.80
23143;DHT22;11740;51.168;4.112;2022-07-29T00:39:51;20.20;51.30
23143;DHT22;11740;51.168;4.112;2022-07-29T00:42:18;20.20;87.80
23143;DHT22;11740;51.168;4.112;2022-07-29T00:44:46;20.20;63.20
23143;DHT22;11740;51.168;4.112;2022-07-29T00:47:13;20.10;61.20
23143;DHT22;11740;51.168;4.112;2022-07-29T00:49:42;20.10;55.20
23143;DHT22;11740;51.168;4.112;2022-07-29T00:52:10;20.10;47.80
23143;DHT22;11740;51.168;4.112;2022-07-29T00:54:39;20.10;61.90
23143;DHT22;11740;51.168;4.112;2022-07-29T00:57:11;20.00;61.50
23143;DHT22;11740;51.168;4.112;2022-07-29T00:59:39;20.00;72.90
23143;DHT22;11740;51.168;4.112;2022-07-29T01:02:06;19.90;58.20
23143;DHT22;11740;51.168;4.112;2022-07-29T01:04:33;19.80;69.10
23143;DHT22;11740;51.168;4.112;2022-07-29T01:07:02;19.80;65.00
23143;DHT22;11740;51.168;4.112;2022-07-29T01:09:31;19.80;72.30
23143;DHT22;11740;51.168;4.112;2022-07-29T01:12:21;19.70;64.10
23143;DHT22;11740;51.168;4.112;2022-07-29T01:14:50;19.70;83.20
23143;DHT22;11740;51.168;4.112;2022-07-29T01:17:23;19.60;91.10
23143;DHT22;11740;51.168;4.112;2022-07-29T01:19:56;19.50;90.10
23143;DHT22;11740;51.168;4.112;2022-07-29T01:30:32;19.50;90.60
23143;DHT22;11740;51.168;4.112;2022-07-29T01:33:09;19.60;78.80
23143;DHT22;11740;51.168;4.112;2022-07-29T01:36:00;19.60;98.40
23143;DHT22;11740;51.168;4.112;2022-07-29T01:38:28;19.60;72.50
23143;DHT22;11740;51.168;4.112;2022-07-29T01:41:04;19.50;69.70
23143;DHT22;11740;51.168;4.112;2022-07-29T01:43:38;19.40;92.50
23143;DHT22;11740;51.168;4.112;2022-07-29T01:46:18;19.20;99.90
23143;DHT22;11740;51.168;4.112;2022-07-29T01:48:57;19.20;99.90
23143;DHT22;11740;51.168;4.112;2022-07-29T01:54:15;19.30;92.50
23143;DHT22;11740;51.168;4.112;2022-07-29T01:56:48;19.20;85.20
23143;DHT22;11740;51.168;4.112;2022-07-29T01:59:17;19.20;85.50
23143;DHT22;11740;51.168;4.112;2022-07-29T02:01:47;19.20;82.20
23143;DHT22;11740;51.168;4.112;2022-07-29T02:04:20;19.20;99.90
23143;DHT22;11740;51.168;4.112;2022-07-29T02:06:58;19.10;87.30
23143;DHT22;11740;51.168;4.112;2022-07-29T02:09:30;19.10;88.90
23143;DHT22;11740;51.168;4.112;2022-07-29T02:11:59;19.00;98.90
23143;DHT22;11740;51.168;4.112;2022-07-29T02:14:35;19.00;68.90
23143;DHT22;11740;51.168;4.112;2022-07-29T02:17:04;19.00;67.70
23143;DHT22;11740;51.168;4.112;2022-07-29T02:19:33;19.00;88.30
23143;DHT22;11740;51.168;4.112;2022-07-29T02:22:01;18.90;91.60
23143;DHT22;11740;51.168;4.112;2022-07-29T02:24:29;18.90;80.80
23143;DHT22;11740;51.168;4.112;2022-07-29T02:26:59;18.80;89.00
23143;DHT22;11740;51.168;4.112;2022-07-29T02:29:29;18.80;88.30
23143;DHT22;11740;51.168;4.112;2022-07-29T02:31:58;18.80;82.80
23143;DHT22;11740;51.168;4.112;2022-07-29T02:34:27;18.70;77.40
23143;DHT22;11740;51.168;4.112;2022-07-29T02:36:56;18.70;98.00
23143;DHT22;11740;51.168;4.112;2022-07-29T02:39:24;18.60;80.40
23143;DHT22;11740;51.168;4.112;2022-07-29T02:41:56;18.60;99.90
23143;DHT22;11740;51.168;4.112;2022-07-29T02:44:26;18.50;99.90
23143;DHT22;11740;51.168;4.112;2022-07-29T02:47:19;18.50;99.90
23143;DHT22;11740;51.168;4.112;2022-07-29T02:53:01;18.50;80.80
23143;DHT22;11740;51.168;4.112;2022-07-29T02:56:10;18.50;88.40
23143;DHT22;11740;51.168;4.112;2022-07-29T02:58:49;18.30;79.30
23143;DHT22;11740;51.168;4.112;2022-07-29T03:01:24;18.30;79.70
23143;DHT22;11740;51.168;4.112;2022-07-29T03:03:55;18.30;81.40
23143;DHT22;11740;51.168;4.112;2022-07-29T03:06:25;18.30;75.20
23143;DHT22;11740;51.168;4.112;2022-07-29T03:09:06;18.20;99.90
23143;DHT22;11740;51.168;4.112;2022-07-29T03:11:39;18.20;77.10
23143;DHT22;11740;51.168;4.112;2022-07-29T03:14:19;18.20;63.00
23143;DHT22;11740;51.168;4.112;2022-07-29T03:16:48;18.10;65.90
23143;DHT22;11740;51.168;4.112;2022-07-29T03:19:17;18.10;71.80
23143;DHT22;11740;51.168;4.112;2022-07-29T03:21:44;18.10;82.20
23143;DHT22;11740;51.168;4.112;2022-07-29T03:24:25;18.00;85.00
23143;DHT22;11740;51.168;4.112;2022-07-29T03:26:54;17.90;99.90
23143;DHT22;11740;51.168;4.112;2022-07-29T03:29:23;17.90;91.20
23143;DHT22;11740;51.168;4.112;2022-07-29T03:31:59;17.80;99.90
23143;DHT22;11740;51.168;4.112;2022-07-29T03:34:28;17.70;99.90
23143;DHT22;11740;51.168;4.112;2022-07-29T03:36:55;17.60;99.90
23143;DHT22;11740;51.168;4.112;2022-07-29T03:39:24;17.60;99.90
23143;DHT22;11740;51.168;4.112;2022-07-29T03:41:55;17.60;99.90
23143;DHT22;11740;51.168;4.112;2022-07-29T03:44:25;17.60;99.90
23143;DHT22;11740;51.168;4.112;2022-07-29T03:46:56;17.60;99.90
23143;DHT22;11740;51.168;4.112;2022-07-29T03:49:26;17.50;99.90
23143;DHT22;11740;51.168;4.112;2022-07-29T03:51:54;17.50;99.90
23143;DHT22;11740;51.168;4.112;2022-07-29T03:54:21;17.50;99.90
23143;DHT22;11740;51.168;4.112;2022-07-29T03:56:50;17.50;99.90
23143;DHT22;11740;51.168;4.112;2022-07-29T03:59:19;17.40;99.90
23143;DHT22;11740;51.168;4.112;2022-07-29T04:01:50;17.40;99.90
23143;DHT22;11740;51.168;4.112;2022-07-29T04:04:17;17.30;99.90
23143;DHT22;11740;51.168;4.112;2022-07-29T04:06:46;17.30;99.90
23143;DHT22;11740;51.168;4.112;2022-07-29T04:09:14;17.30;99.90
23143;DHT22;11740;51.168;4.112;2022-07-29T04:11:42;17.10;99.90
23143;DHT22;11740;51.168;4.112;2022-07-29T04:14:30;17.00;99.90
23143;DHT22;11740;51.168;4.112;2022-07-29T04:17:04;17.00;99.90
23143;DHT22;11740;51.168;4.112;2022-07-29T04:19:31;17.00;99.90
23143;DHT22;11740;51.168;4.112;2022-07-29T04:21:59;16.90;99.90
23143;DHT22;11740;51.168;4.112;2022-07-29T04:24:27;16.70;99.90
23143;DHT22;11740;51.168;4.112;2022-07-29T04:26:54;16.70;99.90
23143;DHT22;11740;51.168;4.112;2022-07-29T04:29:22;16.70;99.90
23143;DHT22;11740;51.168;4.112;2022-07-29T04:31:49;16.60;99.90
23143;DHT22;11740;51.168;4.112;2022-07-29T04:34:16;16.60;99.90
23143;DHT22;11740;51.168;4.112;2022-07-29T04:36:44;16.60;99.90
23143;DHT22;11740;51.168;4.112;2022-07-29T04:39:11;16.70;99.90
23143;DHT22;11740;51.168;4.112;2022-07-29T04:41:38;16.70;99.90
23143;DHT22;11740;51.168;4.112;2022-07-29T04:44:05;16.60;99.90
23143;DHT22;11740;51.168;4.112;2022-07-29T04:46:35;16.40;1.00
23143;DHT22;11740;51.168;4.112;2022-07-29T04:49:03;16.40;1.00
23143;DHT22;11740;51.168;4.112;2022-07-29T04:51:30;16.50;99.90
23143;DHT22;11740;51.168;4.112;2022-07-29T04:53:57;16.50;99.90
23143;DHT22;11740;51.168;4.112;2022-07-29T04:56:25;16.50;99.90
23143;DHT22;11740;51.168;4.112;2022-07-29T04:58:52;16.50;99.90
23143;DHT22;11740;51.168;4.112;2022-07-29T05:01:19;16.40;99.90
23143;DHT22;11740;51.168;4.112;2022-07-29T05:03:46;16.50;1.00
23143;DHT22;11740;51.168;4.112;2022-07-29T05:06:13;16.40;99.90
23143;DHT22;11740;51.168;4.112;2022-07-29T05:08:41;16.40;1.00
23143;DHT22;11740;51.168;4.112;2022-07-29T05:11:08;16.30;1.00
23143;DHT22;11740;51.168;4.112;2022-07-29T05:13:38;16.40;1.00
23143;DHT22;11740;51.168;4.112;2022-07-29T05:16:11;16.40;99.90
23143;DHT22;11740;51.168;4.112;2022-07-29T05:18:40;16.50;1.00
23143;DHT22;11740;51.168;4.112;2022-07-29T05:21:07;16.50;1.00
23143;DHT22;11740;51.168;4.112;2022-07-29T05:23:34;16.50;1.00
23143;DHT22;11740;51.168;4.112;2022-07-29T05:26:03;16.50;1.00
23143;DHT22;11740;51.168;4.112;2022-07-29T05:28:34;16.50;1.00
23143;DHT22;11740;51.168;4.112;2022-07-29T05:31:02;16.50;1.00
23143;DHT22;11740;51.168;4.112;2022-07-29T05:33:29;16.50;1.00
23143;DHT22;11740;51.168;4.112;2022-07-29T05:36:01;16.40;67.60
23143;DHT22;11740;51.168;4.112;2022-07-29T05:38:32;16.50;99.90
23143;DHT22;11740;51.168;4.112;2022-07-29T05:41:00;16.50;1.00
23143;DHT22;11740;51.168;4.112;2022-07-29T05:43:28;16.50;99.90
23143;DHT22;11740;51.168;4.112;2022-07-29T05:45:55;16.40;99.90
23143;DHT22;11740;51.168;4.112;2022-07-29T05:48:23;16.50;99.90
23143;DHT22;11740;51.168;4.112;2022-07-29T05:50:51;16.50;99.90
23143;DHT22;11740;51.168;4.112;2022-07-29T05:53:18;16.50;1.00
23143;DHT22;11740;51.168;4.112;2022-07-29T05:55:47;16.50;1.00
23143;DHT22;11740;51.168;4.112;2022-07-29T05:58:14;16.50;59.10
23143;DHT22;11740;51.168;4.112;2022-07-29T06:00:42;16.50;1.00
23143;DHT22;11740;51.168;4.112;2022-07-29T06:03:09;16.50;1.00
23143;DHT22;11740;51.168;4.112;2022-07-29T06:05:36;16.50;54.50
23143;DHT22;11740;51.168;4.112;2022-07-29T06:08:04;16.50;1.00
23143;DHT22;11740;51.168;4.112;2022-07-29T06:10:35;16.50;1.00
23143;DHT22;11740;51.168;4.112;2022-07-29T06:13:02;16.50;99.90
23143;DHT22;11740;51.168;4.112;2022-07-29T06:15:29;16.50;1.00
23143;DHT22;11740;51.168;4.112;2022-07-29T06:17:56;16.60;1.00
23143;DHT22;11740;51.168;4.112;2022-07-29T06:20:30;16.60;1.00
23143;DHT22;11740;51.168;4.112;2022-07-29T06:22:59;16.60;99.90
23143;DHT22;11740;51.168;4.112;2022-07-29T06:25:27;16.70;1.00
23143;DHT22;11740;51.168;4.112;2022-07-29T06:27:57;16.60;1.00
23143;DHT22;11740;51.168;4.112;2022-07-29T06:30:24;16.70;1.00
23143;DHT22;11740;51.168;4.112;2022-07-29T06:32:52;16.70;46.50
23143;DHT22;11740;51.168;4.112;2022-07-29T06:35:19;16.70;50.60
23143;DHT22;11740;51.168;4.112;2022-07-29T06:38:06;16.80;99.90
23143;DHT22;11740;51.168;4.112;2022-07-29T06:40:53;16.80;99.90
23143;DHT22;11740;51.168;4.112;2022-07-29T06:43:37;16.80;58.80
23143;DHT22;11740;51.168;4.112;2022-07-29T06:46:17;16.90;99.90
23143;DHT22;11740;51.168;4.112;2022-07-29T06:48:45;16.90;99.90
23143;DHT22;11740;51.168;4.112;2022-07-29T06:51:14;16.90;99.90
23143;DHT22;11740;51.168;4.112;2022-07-29T06:53:42;17.00;1.00
23143;DHT22;11740;51.168;4.112;2022-07-29T06:56:33;17.00;1.00
23143;DHT22;11740;51.168;4.112;2022-07-29T06:59:06;17.10;1.00
23143;DHT22;11740;51.168;4.112;2022-07-29T07:01:38;17.10;1.00
23143;DHT22;11740;51.168;4.112;2022-07-29T07:04:06;17.20;99.90
23143;DHT22;11740;51.168;4.112;2022-07-29T07:06:36;17.20;99.90
23143;DHT22;11740;51.168;4.112;2022-07-29T07:09:03;17.20;99.90
23143;DHT22;11740;51.168;4.112;2022-07-29T07:11:32;17.30;99.90
23143;DHT22;11740;51.168;4.112;2022-07-29T07:13:59;17.40;99.90
23143;DHT22;11740;51.168;4.112;2022-07-29T07:16:29;17.40;99.90
23143;DHT22;11740;51.168;4.112;2022-07-29T07:18:57;17.50;99.90
23143;DHT22;11740;51.168;4.112;2022-07-29T07:21:24;17.50;99.90
23143;DHT22;11740;51.168;4.112;2022-07-29T07:23:55;17.50;99.90
23143;DHT22;11740;51.168;4.112;2022-07-29T07:26:22;17.60;99.90
23143;DHT22;11740;51.168;4.112;2022-07-29T07:28:49;17.60;99.90
23143;DHT22;11740;51.168;4.112;2022-07-29T07:31:16;17.70;1.00
23143;DHT22;11740;51.168;4.112;2022-07-29T07:33:44;17.70;1.00
23143;DHT22;11740;51.168;4.112;2022-07-29T07:36:11;17.90;99.90
23143;DHT22;11740;51.168;4.112;2022-07-29T07:38:38;17.90;99.90
23143;DHT22;11740;51.168;4.112;2022-07-29T07:41:05;18.00;99.90
23143;DHT22;11740;51.168;4.112;2022-07-29T07:43:32;18.00;99.90
23143;DHT22;11740;51.168;4.112;2022-07-29T07:45:59;18.10;99.90
23143;DHT22;11740;51.168;4.112;2022-07-29T07:48:26;18.20;99.90
23143;DHT22;11740;51.168;4.112;2022-07-29T07:50:53;18.20;99.90
23143;DHT22;11740;51.168;4.112;2022-07-29T07:53:21;18.20;99.90
23143;DHT22;11740;51.168;4.112;2022-07-29T07:55:48;18.30;99.90
23143;DHT22;11740;51.168;4.112;2022-07-29T07:58:35;18.30;99.90
23143;DHT22;11740;51.168;4.112;2022-07-29T08:01:03;18.30;99.90
23143;DHT22;11740;51.168;4.112;2022-07-29T08:03:30;18.40;99.90
23143;DHT22;11740;51.168;4.112;2022-07-29T08:05:57;18.40;99.90
23143;DHT22;11740;51.168;4.112;2022-07-29T08:08:24;18.40;99.90
23143;DHT22;11740;51.168;4.112;2022-07-29T08:10:51;18.50;99.90
23143;DHT22;11740;51.168;4.112;2022-07-29T08:13:25;18.60;99.90
23143;DHT22;11740;51.168;4.112;2022-07-29T08:15:55;18.80;99.90
23143;DHT22;11740;51.168;4.112;2022-07-29T08:18:28;18.80;99.90
23143;DHT22;11740;51.168;4.112;2022-07-29T08:20:56;19.00;54.00
23143;DHT22;11740;51.168;4.112;2022-07-29T08:23:23;19.10;39.80
23143;DHT22;11740;51.168;4.112;2022-07-29T08:25:51;19.40;1.00
23143;DHT22;11740;51.168;4.112;2022-07-29T08:28:20;19.60;5.60
23143;DHT22;11740;51.168;4.112;2022-07-29T08:30:51;19.90;1.00
23143;DHT22;11740;51.168;4.112;2022-07-29T08:33:18;20.20;1.00
23143;DHT22;11740;51.168;4.112;2022-07-29T08:35:45;20.60;1.00
23143;DHT22;11740;51.168;4.112;2022-07-29T08:38:12;20.80;1.00
23143;DHT22;11740;51.168;4.112;2022-07-29T08:40:39;21.00;1.00
23143;DHT22;11740;51.168;4.112;2022-07-29T08:43:08;21.30;1.00
23143;DHT22;11740;51.168;4.112;2022-07-29T08:45:47;21.50;1.00
23143;DHT22;11740;51.168;4.112;2022-07-29T08:48:22;21.70;1.00
23143;DHT22;11740;51.168;4.112;2022-07-29T08:50:55;22.00;1.00
23143;DHT22;11740;51.168;4.112;2022-07-29T08:53:25;22.00;99.90
23143;DHT22;11740;51.168;4.112;2022-07-29T08:55:54;22.20;99.90
23143;DHT22;11740;51.168;4.112;2022-07-29T08:58:22;22.30;99.90
23143;DHT22;11740;51.168;4.112;2022-07-29T09:00:55;22.50;99.90
23143;DHT22;11740;51.168;4.112;2022-07-29T09:03:25;22.60;99.90
23143;DHT22;11740;51.168;4.112;2022-07-29T09:05:58;22.60;99.90
23143;DHT22;11740;51.168;4.112;2022-07-29T09:08:26;22.70;99.90
23143;DHT22;11740;51.168;4.112;2022-07-29T09:10:54;22.80;99.90
23143;DHT22;11740;51.168;4.112;2022-07-29T09:13:25;22.90;99.90
23143;DHT22;11740;51.168;4.112;2022-07-29T09:15:52;22.90;99.90
23143;DHT22;11740;51.168;4.112;2022-07-29T09:18:41;23.00;99.90
23143;DHT22;11740;51.168;4.112;2022-07-29T09:21:13;23.10;99.90
23143;DHT22;11740;51.168;4.112;2022-07-29T09:24:07;23.20;99.90
23143;DHT22;11740;51.168;4.112;2022-07-29T09:26:40;23.50;99.90
23143;DHT22;11740;51.168;4.112;2022-07-29T09:29:14;23.70;99.90
23143;DHT22;11740;51.168;4.112;2022-07-29T09:31:50;23.70;99.90
23143;DHT22;11740;51.168;4.112;2022-07-29T09:34:26;23.70;99.90
23143;DHT22;11740;51.168;4.112;2022-07-29T09:36:55;23.90;99.90
23143;DHT22;11740;51.168;4.112;2022-07-29T09:42:01;23.60;99.90
23143;DHT22;11740;51.168;4.112;2022-07-29T09:44:49;23.50;99.90
23143;DHT22;11740;51.168;4.112;2022-07-29T09:47:18;23.70;99.90
23143;DHT22;11740;51.168;4.112;2022-07-29T09:49:56;23.80;99.90
23143;DHT22;11740;51.168;4.112;2022-07-29T09:52:27;23.60;99.90
23143;DHT22;11740;51.168;4.112;2022-07-29T09:55:06;23.60;99.90
23143;DHT22;11740;51.168;4.112;2022-07-29T09:57:35;23.60;99.90
23143;DHT22;11740;51.168;4.112;2022-07-29T10:00:12;23.80;99.90
23143;DHT22;11740;51.168;4.112;2022-07-29T10:02:43;23.80;99.90
23143;DHT22;11740;51.168;4.112;2022-07-29T10:05:26;24.00;99.90
23143;DHT22;11740;51.168;4.112;2022-07-29T10:08:02;24.10;99.90
23143;DHT22;11740;51.168;4.112;2022-07-29T10:10:32;24.10;99.90
23143;DHT22;11740;51.168;4.112;2022-07-29T10:13:13;24.00;99.90
23143;DHT22;11740;51.168;4.112;2022-07-29T10:15:43;24.00;99.90
23143;DHT22;11740;51.168;4.112;2022-07-29T10:18:13;24.00;99.90
23143;DHT22;11740;51.168;4.112;2022-07-29T10:20:44;24.00;99.90
23143;DHT22;11740;51.168;4.112;2022-07-29T10:23:11;24.10;99.90
23143;DHT22;11740;51.168;4.112;2022-07-29T10:25:39;24.00;99.90
23143;DHT22;11740;51.168;4.112;2022-07-29T10:28:12;24.00;99.90
23143;DHT22;11740;51.168;4.112;2022-07-29T10:30:42;24.20;99.90
23143;DHT22;11740;51.168;4.112;2022-07-29T10:44:46;24.40;99.90
23143;DHT22;11740;51.168;4.112;2022-07-29T10:47:24;24.40;99.90
23143;DHT22;11740;51.168;4.112;2022-07-29T10:50:01;24.50;99.90
23143;DHT22;11740;51.168;4.112;2022-07-29T10:55:36;24.70;99.90
23143;DHT22;11740;51.168;4.112;2022-07-29T11:00:44;24.80;99.90
23143;DHT22;11740;51.168;4.112;2022-07-29T11:03:48;25.00;99.90
23143;DHT22;11740;51.168;4.112;2022-07-29T11:06:23;25.10;99.90
23143;DHT22;11740;51.168;4.112;2022-07-29T11:09:17;25.20;99.90
23143;DHT22;11740;51.168;4.112;2022-07-29T11:12:04;25.30;99.90
23143;DHT22;11740;51.168;4.112;2022-07-29T11:17:19;25.40;99.90
23143;DHT22;11740;51.168;4.112;2022-07-29T11:19:46;25.40;99.90
23143;DHT22;11740;51.168;4.112;2022-07-29T11:22:35;25.50;99.90
23143;DHT22;11740;51.168;4.112;2022-07-29T11:25:14;25.70;99.90
23143;DHT22;11740;51.168;4.112;2022-07-29T11:27:43;25.80;99.90
23143;DHT22;11740;51.168;4.112;2022-07-29T11:30:11;25.90;99.90
23143;DHT22;11740;51.168;4.112;2022-07-29T11:32:41;26.00;99.90
23143;DHT22;11740;51.168;4.112;2022-07-29T11:35:22;26.10;99.90
23143;DHT22;11740;51.168;4.112;2022-07-29T11:38:24;26.00;99.90
23143;DHT22;11740;51.168;4.112;2022-07-29T11:41:26;26.10;99.90
23143;DHT22;11740;51.168;4.112;2022-07-29T11:43:58;26.10;99.90
23143;DHT22;11740;51.168;4.112;2022-07-29T11:46:46;26.20;99.90
23143;DHT22;11740;51.168;4.112;2022-07-29T11:49:23;26.40;99.90
23143;DHT22;11740;51.168;4.112;2022-07-29T11:51:59;26.50;99.90
23143;DHT22;11740;51.168;4.112;2022-07-29T11:54:32;26.50;99.90
23143;DHT22;11740;51.168;4.112;2022-07-29T11:57:20;26.60;99.90
23143;DHT22;11740;51.168;4.112;2022-07-29T11:59:48;26.70;99.90
23143;DHT22;11740;51.168;4.112;2022-07-29T12:02:16;26.90;99.90
23143;DHT22;11740;51.168;4.112;2022-07-29T12:05:03;27.00;99.90
23143;DHT22;11740;51.168;4.112;2022-07-29T12:07:37;27.10;99.90
23143;DHT22;11740;51.168;4.112;2022-07-29T12:10:07;27.30;99.90
23143;DHT22;11740;51.168;4.112;2022-07-29T12:12:51;27.30;99.90
23143;DHT22;11740;51.168;4.112;2022-07-29T12:15:19;27.50;99.90
23143;DHT22;11740;51.168;4.112;2022-07-29T12:17:48;27.50;99.90
23143;DHT22;11740;51.168;4.112;2022-07-29T12:20:29;27.60;99.90
23143;DHT22;11740;51.168;4.112;2022-07-29T12:22:56;27.70;99.90
23143;DHT22;11740;51.168;4.112;2022-07-29T12:25:24;28.00;99.90
23143;DHT22;11740;51.168;4.112;2022-07-29T12:28:01;28.10;99.90
23143;DHT22;11740;51.168;4.112;2022-07-29T12:33:22;28.00;99.90
23143;DHT22;11740;51.168;4.112;2022-07-29T12:36:01;28.00;99.90
23143;DHT22;11740;51.168;4.112;2022-07-29T12:38:40;28.20;99.90
23143;DHT22;11740;51.168;4.112;2022-07-29T12:41:07;28.20;99.90
23143;DHT22;11740;51.168;4.112;2022-07-29T12:43:34;28.30;99.90
23143;DHT22;11740;51.168;4.112;2022-07-29T12:46:21;28.50;99.90
23143;DHT22;11740;51.168;4.112;2022-07-29T12:48:54;28.70;99.90
23143;DHT22;11740;51.168;4.112;2022-07-29T12:51:38;28.80;99.90
23143;DHT22;11740;51.168;4.112;2022-07-29T12:54:13;28.70;99.90
23143;DHT22;11740;51.168;4.112;2022-07-29T12:56:43;28.90;99.90
23143;DHT22;11740;51.168;4.112;2022-07-29T12:59:21;28.90;99.90
23143;DHT22;11740;51.168;4.112;2022-07-29T13:01:51;28.90;99.90
23143;DHT22;11740;51.168;4.112;2022-07-29T13:04:29;29.00;99.90
23143;DHT22;11740;51.168;4.112;2022-07-29T13:07:06;29.10;99.90
23143;DHT22;11740;51.168;4.112;2022-07-29T13:09:43;29.30;99.90
23143;DHT22;11740;51.168;4.112;2022-07-29T13:12:13;29.50;99.90
23143;DHT22;11740;51.168;4.112;2022-07-29T13:14:47;29.60;99.90
23143;DHT22;11740;51.168;4.112;2022-07-29T13:19:49;29.80;99.90
23143;DHT22;11740;51.168;4.112;2022-07-29T13:22:24;29.70;99.90
23143;DHT22;11740;51.168;4.112;2022-07-29T13:27:23;30.20;99.90
23143;DHT22;11740;51.168;4.112;2022-07-29T13:29:51;30.30;99.90
23143;DHT22;11740;51.168;4.112;2022-07-29T13:32:20;30.40;99.90
23143;DHT22;11740;51.168;4.112;2022-07-29T13:34:59;30.50;99.90
23143;DHT22;11740;51.168;4.112;2022-07-29T13:37:32;30.60;99.90
23143;DHT22;11740;51.168;4.112;2022-07-29T13:40:02;30.70;99.90
23143;DHT22;11740;51.168;4.112;2022-07-29T13:42:31;30.60;99.90
23143;DHT22;11740;51.168;4.112;2022-07-29T13:44:59;30.80;99.90
23143;DHT22;11740;51.168;4.112;2022-07-29T13:47:27;30.60;99.90
23143;DHT22;11740;51.168;4.112;2022-07-29T13:49:59;30.80;99.90
23143;DHT22;11740;51.168;4.112;2022-07-29T13:52:27;30.80;99.90
23143;DHT22;11740;51.168;4.112;2022-07-29T13:54:55;31.00;99.90
23143;DHT22;11740;51.168;4.112;2022-07-29T13:57:22;31.10;99.90
23143;DHT22;11740;51.168;4.112;2022-07-29T13:59:49;31.20;99.90
23143;DHT22;11740;51.168;4.112;2022-07-29T14:02:20;31.30;99.90
23143;DHT22;11740;51.168;4.112;2022-07-29T14:04:55;31.40;99.90
23143;DHT22;11740;51.168;4.112;2022-07-29T14:07:22;31.30;99.90
23143;DHT22;11740;51.168;4.112;2022-07-29T14:09:50;31.40;99.90
23143;DHT22;11740;51.168;4.112;2022-07-29T14:12:17;31.50;99.90
23143;DHT22;11740;51.168;4.112;2022-07-29T14:14:45;31.70;99.90
23143;DHT22;11740;51.168;4.112;2022-07-29T14:17:13;31.90;99.90
23143;DHT22;11740;51.168;4.112;2022-07-29T14:19:41;31.90;99.90
23143;DHT22;11740;51.168;4.112;2022-07-29T14:22:08;32.00;99.90
23143;DHT22;11740;51.168;4.112;2022-07-29T14:24:36;32.20;99.90
23143;DHT22;11740;51.168;4.112;2022-07-29T14:27:05;32.30;99.90
23143;DHT22;11740;51.168;4.112;2022-07-29T14:29:33;32.70;99.90
23143;DHT22;11740;51.168;4.112;2022-07-29T14:32:07;32.60;99.90
23143;DHT22;11740;51.168;4.112;2022-07-29T14:34:37;32.50;99.90
23143;DHT22;11740;51.168;4.112;2022-07-29T14:37:06;32.70;92.20
23143;DHT22;11740;51.168;4.112;2022-07-29T14:39:34;32.60;99.90
23143;DHT22;11740;51.168;4.112;2022-07-29T14:42:08;33.00;99.90
23143;DHT22;11740;51.168;4.112;2022-07-29T14:44:40;33.20;99.90
23143;DHT22;11740;51.168;4.112;2022-07-29T14:47:08;33.40;99.90
23143;DHT22;11740;51.168;4.112;2022-07-29T14:49:35;33.40;99.90
23143;DHT22;11740;51.168;4.112;2022-07-29T14:52:02;33.10;99.90
23143;DHT22;11740;51.168;4.112;2022-07-29T14:54:30;33.20;99.90
23143;DHT22;11740;51.168;4.112;2022-07-29T14:56:57;33.30;99.90
23143;DHT22;11740;51.168;4.112;2022-07-29T14:59:25;33.60;99.90
23143;DHT22;11740;51.168;4.112;2022-07-29T15:01:52;33.80;99.90
23143;DHT22;11740;51.168;4.112;2022-07-29T15:04:20;33.70;95.70
23143;DHT22;11740;51.168;4.112;2022-07-29T15:06:47;33.60;89.30
23143;DHT22;11740;51.168;4.112;2022-07-29T15:09:14;33.50;93.80
23143;DHT22;11740;51.168;4.112;2022-07-29T15:11:41;33.50;99.90
23143;DHT22;11740;51.168;4.112;2022-07-29T15:14:09;33.90;95.30
23143;DHT22;11740;51.168;4.112;2022-07-29T15:16:37;34.10;99.90
23143;DHT22;11740;51.168;4.112;2022-07-29T15:19:07;34.10;99.90
23143;DHT22;11740;51.168;4.112;2022-07-29T15:21:35;34.30;99.90
23143;DHT22;11740;51.168;4.112;2022-07-29T15:24:15;34.30;99.90
23143;DHT22;11740;51.168;4.112;2022-07-29T15:26:46;34.20;97.40
23143;DHT22;11740;51.168;4.112;2022-07-29T15:29:14;34.00;99.40
23143;DHT22;11740;51.168;4.112;2022-07-29T15:31:42;34.30;99.90
23143;DHT22;11740;51.168;4.112;2022-07-29T15:34:10;34.50;87.90
23143;DHT22;11740;51.168;4.112;2022-07-29T15:36:37;34.40;83.80
23143;DHT22;11740;51.168;4.112;2022-07-29T15:39:20;34.60;88.50
23143;DHT22;11740;51.168;4.112;2022-07-29T15:41:49;34.90;85.20
23143;DHT22;11740;51.168;4.112;2022-07-29T15:44:17;35.00;87.30
23143;DHT22;11740;51.168;4.112;2022-07-29T15:46:44;35.10;97.30
23143;DHT22;11740;51.168;4.112;2022-07-29T15:49:31;35.00;96.70
23143;DHT22;11740;51.168;4.112;2022-07-29T15:52:16;35.20;87.50
23143;DHT22;11740;51.168;4.112;2022-07-29T15:54:53;35.30;90.10
23143;DHT22;11740;51.168;4.112;2022-07-29T15:57:21;35.10;92.70
23143;DHT22;11740;51.168;4.112;2022-07-29T15:59:48;35.30;85.70
23143;DHT22;11740;51.168;4.112;2022-07-29T16:02:15;35.20;81.90
23143;DHT22;11740;51.168;4.112;2022-07-29T16:04:43;35.10;71.50
23143;DHT22;11740;51.168;4.112;2022-07-29T16:07:10;35.20;71.70
23143;DHT22;11740;51.168;4.112;2022-07-29T16:09:37;35.20;78.20
23143;DHT22;11740;51.168;4.112;2022-07-29T16:12:04;35.50;88.50
23143;DHT22;11740;51.168;4.112;2022-07-29T16:14:41;35.60;97.20
23143;DHT22;11740;51.168;4.112;2022-07-29T16:17:10;35.30;82.80
23143;DHT22;11740;51.168;4.112;2022-07-29T16:19:41;35.40;83.10
23143;DHT22;11740;51.168;4.112;2022-07-29T16:22:09;35.50;88.10
23143;DHT22;11740;51.168;4.112;2022-07-29T16:24:37;35.10;99.10
23143;DHT22;11740;51.168;4.112;2022-07-29T16:27:05;35.00;67.70
23143;DHT22;11740;51.168;4.112;2022-07-29T16:29:33;34.90;73.40
23143;DHT22;11740;51.168;4.112;2022-07-29T16:32:00;35.10;68.10
23143;DHT22;11740;51.168;4.112;2022-07-29T16:34:27;35.20;76.70
23143;DHT22;11740;51.168;4.112;2022-07-29T16:36:55;35.10;69.70
23143;DHT22;11740;51.168;4.112;2022-07-29T16:39:22;34.90;60.50
23143;DHT22;11740;51.168;4.112;2022-07-29T16:41:49;35.20;74.60